createdAt,value
2017-05-02T20:37:14.143Z,36.20
2017-05-02T20:39:43.215Z,36.30
2017-05-02T20:42:11.609Z,36.30
2017-05-02T20:44:40.670Z,36.30
2017-05-02T21:03:51.591Z,34.20
2017-05-02T21:06:20.727Z,35.90
2017-05-02T21:08:49.194Z,37.00
2017-05-02T21:11:17.543Z,38.80
2017-05-02T21:13:45.944Z,41.00
2017-05-02T21:16:14.371Z,42.70
2017-05-02T21:18:42.781Z,44.50
2017-05-02T21:21:11.923Z,46.50
2017-05-02T21:23:40.283Z,48.10
2017-05-02T21:26:08.703Z,49.80
2017-05-02T21:28:37.079Z,51.10
2017-05-02T21:31:05.401Z,52.30
2017-05-02T21:36:20.292Z,55.10
2017-05-02T21:38:49.487Z,55.70
2017-05-02T21:41:24.710Z,56.40
2017-05-02T21:49:21.581Z,58.20
2017-05-02T21:51:55.248Z,58.70
2017-05-02T21:54:24.538Z,59.00
2017-05-02T21:59:59.282Z,59.80
2017-05-02T22:05:21.116Z,61.30
2017-05-02T22:07:49.496Z,61.40
2017-05-02T22:10:31.238Z,61.90
2017-05-02T22:16:00.783Z,62.50
2017-05-02T22:18:29.951Z,62.90
2017-05-02T22:21:04.667Z,62.90
2017-05-02T22:29:24.668Z,63.20
2017-05-02T22:31:56.873Z,63.40
2017-05-02T22:39:51.156Z,64.10
2017-05-02T22:42:20.656Z,64.40
2017-05-02T22:44:49.489Z,64.60
2017-05-02T22:47:18.151Z,64.70
2017-05-02T22:49:46.574Z,65.20
2017-05-02T22:52:15.675Z,65.40
2017-05-02T22:54:44.744Z,65.20
2017-05-02T22:57:13.208Z,65.10
2017-05-02T22:59:41.621Z,65.10
2017-05-02T23:02:09.987Z,65.30
2017-05-02T23:04:38.348Z,65.60
2017-05-02T23:07:07.531Z,65.50
2017-05-02T23:09:35.953Z,65.70
2017-05-02T23:12:04.370Z,65.70
2017-05-02T23:14:32.715Z,65.60
2017-05-02T23:17:01.794Z,65.70
2017-05-02T23:19:31.237Z,65.60
2017-05-02T23:24:41.757Z,66.10
2017-05-02T23:27:11.371Z,66.40
2017-05-02T23:29:39.681Z,66.50
2017-05-02T23:32:08.749Z,66.50
2017-05-02T23:34:39.557Z,66.70
2017-05-02T23:37:08.015Z,66.70
2017-05-02T23:42:17.986Z,66.60
2017-05-02T23:44:46.944Z,66.70
2017-05-02T23:47:19.386Z,66.60
2017-05-02T23:49:47.745Z,66.50
2017-05-02T23:52:16.123Z,66.60
2017-05-02T23:54:45.188Z,66.60
2017-05-02T23:57:13.616Z,66.50
2017-05-02T23:59:41.974Z,66.50
